createdAt,value
2022-09-22T00:01:43.964Z,1.40
2022-09-22T00:04:14.575Z,1.50
2022-09-22T00:06:44.708Z,1.20
2022-09-22T00:09:14.820Z,0.97
2022-09-22T00:11:45.212Z,1.50
2022-09-22T00:14:15.595Z,1.00
2022-09-22T00:16:46.952Z,1.40
2022-09-22T00:19:18.435Z,1.00
2022-09-22T00:21:47.467Z,1.30
2022-09-22T00:24:16.080Z,1.30
2022-09-22T00:26:44.382Z,1.17
2022-09-22T00:29:13.790Z,1.07
2022-09-22T00:31:43.173Z,1.27
2022-09-22T00:34:17.211Z,1.43
2022-09-22T00:36:46.003Z,0.90
2022-09-22T00:39:15.464Z,1.53
2022-09-22T00:41:45.891Z,1.83
2022-09-22T00:44:38.520Z,1.40
2022-09-22T00:47:14.045Z,1.20
2022-09-22T00:49:49.396Z,1.50
2022-09-22T00:52:21.118Z,1.00
2022-09-22T00:54:51.088Z,1.23
2022-09-22T00:57:22.538Z,1.47
2022-09-22T00:59:52.497Z,1.17
2022-09-22T01:02:22.248Z,1.40
2022-09-22T01:04:52.942Z,0.90
2022-09-22T01:07:22.815Z,1.10
2022-09-22T01:09:51.326Z,1.37
2022-09-22T01:12:19.973Z,0.90
2022-09-22T01:15:03.771Z,1.00
2022-09-22T01:17:42.089Z,0.90
2022-09-22T01:20:43.439Z,0.70
2022-09-22T01:23:43.656Z,1.00
2022-09-22T01:29:26.894Z,0.77
2022-09-22T01:32:03.809Z,0.70
2022-09-22T01:34:36.939Z,0.80
2022-09-22T01:37:13.486Z,0.80
2022-09-22T01:39:46.528Z,0.67
2022-09-22T01:42:20.440Z,0.90
2022-09-22T01:44:54.460Z,0.90
2022-09-22T01:47:28.817Z,0.80
2022-09-22T01:50:02.180Z,1.47
2022-09-22T01:52:33.708Z,0.90
2022-09-22T01:55:08.111Z,1.03
2022-09-22T01:57:42.368Z,0.90
2022-09-22T02:00:12.368Z,1.23
2022-09-22T02:02:49.032Z,1.20
2022-09-22T02:05:28.752Z,1.30
2022-09-22T02:08:07.762Z,1.00
2022-09-22T02:10:42.071Z,1.10
2022-09-22T02:13:10.724Z,1.10
2022-09-22T02:19:35.507Z,1.00
2022-09-22T02:22:05.847Z,0.87
2022-09-22T02:24:38.306Z,0.90
2022-09-22T02:27:10.588Z,1.20
2022-09-22T02:29:41.721Z,0.80
2022-09-22T02:32:13.800Z,1.00
2022-09-22T02:34:45.931Z,0.73
2022-09-22T02:37:23.977Z,0.80
2022-09-22T02:40:02.534Z,1.20
2022-09-22T02:42:35.134Z,1.00
2022-09-22T02:45:13.180Z,1.00
2022-09-22T02:47:47.262Z,0.87
2022-09-22T02:50:20.173Z,0.70
2022-09-22T02:52:53.705Z,0.70
2022-09-22T02:55:22.758Z,0.80
2022-09-22T02:57:51.476Z,0.80
2022-09-22T03:00:20.712Z,0.90
2022-09-22T03:02:49.337Z,0.60
2022-09-22T03:05:19.494Z,0.70
2022-09-22T03:07:48.666Z,0.60
2022-09-22T03:10:17.456Z,0.70
2022-09-22T03:13:08.910Z,0.50
2022-09-22T03:15:35.327Z,0.60
2022-09-22T03:18:04.696Z,0.40
2022-09-22T03:20:34.998Z,0.50
2022-09-22T03:23:03.831Z,0.50
2022-09-22T03:25:32.856Z,0.60
2022-09-22T03:28:01.960Z,0.60
2022-09-22T03:30:30.730Z,0.50
2022-09-22T03:32:58.961Z,0.67
2022-09-22T03:35:27.141Z,0.50
2022-09-22T03:37:56.860Z,0.40
2022-09-22T03:40:25.004Z,0.30
2022-09-22T03:42:53.439Z,0.30
2022-09-22T03:45:21.950Z,0.40
2022-09-22T03:47:50.749Z,0.50
2022-09-22T03:50:19.346Z,0.43
2022-09-22T03:52:47.858Z,0.40
2022-09-22T03:55:17.867Z,0.60
2022-09-22T03:57:46.370Z,0.30
2022-09-22T04:00:16.818Z,0.50
2022-09-22T04:02:45.236Z,0.40
2022-09-22T04:05:13.541Z,0.50
2022-09-22T04:07:42.721Z,0.40
2022-09-22T04:10:10.969Z,0.40
2022-09-22T04:12:40.798Z,0.40
2022-09-22T04:15:10.319Z,0.30
2022-09-22T04:17:38.793Z,0.30
2022-09-22T04:20:08.681Z,0.40
2022-09-22T04:22:37.791Z,0.33
2022-09-22T04:25:07.615Z,0.40
2022-09-22T04:27:35.717Z,0.47
2022-09-22T04:30:06.470Z,0.47
2022-09-22T04:32:34.902Z,0.40
2022-09-22T04:35:03.467Z,0.40
2022-09-22T04:37:31.571Z,0.50
2022-09-22T04:40:00.182Z,0.60
2022-09-22T04:42:28.301Z,0.70
2022-09-22T04:45:02.109Z,0.93
2022-09-22T04:47:32.451Z,0.60
2022-09-22T04:50:00.767Z,0.70
2022-09-22T04:52:28.899Z,0.67
2022-09-22T04:54:56.963Z,0.60
2022-09-22T04:57:25.487Z,0.50
2022-09-22T04:59:53.679Z,0.50
2022-09-22T05:02:22.074Z,0.80
2022-09-22T05:04:52.002Z,0.90
2022-09-22T05:07:20.167Z,0.87
2022-09-22T05:09:48.620Z,0.83
2022-09-22T05:12:16.730Z,0.80
2022-09-22T05:14:44.813Z,0.70
2022-09-22T05:17:13.118Z,1.40
2022-09-22T05:19:41.402Z,1.00
2022-09-22T05:22:10.924Z,1.10
2022-09-22T05:24:42.458Z,0.90
2022-09-22T05:27:11.272Z,1.03
2022-09-22T05:29:40.099Z,0.80
2022-09-22T05:32:08.934Z,0.87
2022-09-22T05:34:37.136Z,0.80
2022-09-22T05:37:05.770Z,0.70
2022-09-22T05:39:35.876Z,0.73
2022-09-22T05:42:07.607Z,0.80
2022-09-22T05:44:39.071Z,0.90
2022-09-22T05:47:07.284Z,0.93
2022-09-22T05:49:35.337Z,1.00
2022-09-22T05:52:03.695Z,0.77
2022-09-22T05:54:32.200Z,0.80
2022-09-22T05:57:02.132Z,0.83
2022-09-22T05:59:30.636Z,0.70
2022-09-22T06:02:00.162Z,0.80
2022-09-22T06:04:28.572Z,0.70
2022-09-22T06:06:56.681Z,1.00
2022-09-22T06:09:25.176Z,0.77
2022-09-22T06:11:53.685Z,0.90
2022-09-22T06:14:32.207Z,0.80
2022-09-22T06:17:07.465Z,0.70
2022-09-22T06:19:42.594Z,0.90
2022-09-22T06:22:11.710Z,1.00
2022-09-22T06:24:39.772Z,0.90
2022-09-22T06:27:07.980Z,0.90
2022-09-22T06:29:38.068Z,0.80
2022-09-22T06:32:09.227Z,1.20
2022-09-22T06:34:37.910Z,1.10
2022-09-22T06:37:08.752Z,1.10
2022-09-22T06:39:37.822Z,0.90
2022-09-22T06:42:07.134Z,1.00
2022-09-22T06:44:37.416Z,0.97
2022-09-22T06:47:06.324Z,1.30
2022-09-22T06:49:34.782Z,1.00
2022-09-22T06:52:04.147Z,1.10
2022-09-22T06:54:32.255Z,1.40
2022-09-22T06:57:00.677Z,1.20
2022-09-22T06:59:29.625Z,1.10
2022-09-22T07:01:59.585Z,1.43
2022-09-22T07:04:28.528Z,1.20
2022-09-22T07:06:56.744Z,1.20
2022-09-22T07:09:25.288Z,0.90
2022-09-22T07:11:54.102Z,1.00
2022-09-22T07:14:22.520Z,1.00
2022-09-22T07:16:55.364Z,1.00
2022-09-22T07:19:25.257Z,1.20
2022-09-22T07:21:53.668Z,1.00
2022-09-22T07:24:22.108Z,1.20
2022-09-22T07:26:51.423Z,1.00
2022-09-22T07:29:20.514Z,1.00
2022-09-22T07:31:49.268Z,1.10
2022-09-22T07:34:18.752Z,0.70
2022-09-22T07:36:49.440Z,0.80
2022-09-22T07:39:17.750Z,0.70
2022-09-22T07:41:46.863Z,1.10
2022-09-22T07:44:34.126Z,0.70
2022-09-22T07:47:03.629Z,0.70
2022-09-22T07:49:32.066Z,0.77
2022-09-22T07:52:01.821Z,0.60
2022-09-22T07:54:30.836Z,0.60
2022-09-22T07:56:59.412Z,0.50
2022-09-22T07:59:28.446Z,0.30
2022-09-22T08:01:56.657Z,0.43
2022-09-22T08:04:26.395Z,0.30
2022-09-22T08:06:56.281Z,0.40
2022-09-22T08:09:26.570Z,0.40
2022-09-22T08:11:55.215Z,0.40
2022-09-22T08:14:24.398Z,0.30
2022-09-22T08:16:53.792Z,0.40
2022-09-22T08:19:24.155Z,0.30
2022-09-22T08:21:55.032Z,0.30
2022-09-22T08:24:25.231Z,0.33
2022-09-22T08:26:56.201Z,0.30
2022-09-22T08:29:25.715Z,0.20
2022-09-22T08:31:55.136Z,0.30
2022-09-22T08:34:23.662Z,0.30
2022-09-22T08:36:52.357Z,0.30
2022-09-22T08:39:21.551Z,0.30
2022-09-22T08:42:07.331Z,0.30
2022-09-22T08:44:38.769Z,0.30
2022-09-22T08:47:07.543Z,0.30
2022-09-22T08:49:58.663Z,0.30
2022-09-22T08:52:32.646Z,0.30
2022-09-22T08:55:03.215Z,0.30
2022-09-22T08:57:59.392Z,0.30
2022-09-22T09:00:32.489Z,0.50
2022-09-22T09:03:17.586Z,0.27
2022-09-22T09:06:05.631Z,0.30
2022-09-22T09:09:06.433Z,0.30
2022-09-22T09:11:50.570Z,0.30
2022-09-22T09:14:44.539Z,0.20
2022-09-22T09:17:16.733Z,0.13
2022-09-22T09:19:47.572Z,0.30
2022-09-22T09:22:25.060Z,0.20
2022-09-22T09:27:51.803Z,0.30
2022-09-22T09:30:22.664Z,0.20
2022-09-22T09:32:53.532Z,0.30
2022-09-22T09:35:26.783Z,0.20
2022-09-22T09:37:59.362Z,0.27
2022-09-22T09:40:28.449Z,0.50
2022-09-22T09:43:03.301Z,0.30
2022-09-22T09:45:36.898Z,0.47
2022-09-22T09:48:27.724Z,0.30
2022-09-22T09:50:56.351Z,0.30
2022-09-22T09:53:40.514Z,0.20
2022-09-22T09:56:21.033Z,0.20
2022-09-22T09:59:14.545Z,0.30
2022-09-22T10:01:47.118Z,0.30
2022-09-22T10:04:29.102Z,0.47
2022-09-22T10:07:10.401Z,0.50
2022-09-22T10:09:38.782Z,0.30
2022-09-22T10:12:08.657Z,0.20
2022-09-22T10:14:36.869Z,0.20
2022-09-22T10:17:24.607Z,0.20
2022-09-22T10:19:52.849Z,0.20
2022-09-22T10:22:27.618Z,0.30
2022-09-22T10:25:00.625Z,0.40
2022-09-22T10:27:30.731Z,0.30
2022-09-22T10:30:24.707Z,0.20
2022-09-22T10:33:16.413Z,0.20
2022-09-22T10:35:47.247Z,0.43
2022-09-22T10:38:21.519Z,0.20
2022-09-22T10:40:56.160Z,0.30
2022-09-22T10:43:40.339Z,0.40
2022-09-22T10:46:20.677Z,0.20
2022-09-22T10:48:55.997Z,0.20
2022-09-22T10:51:38.590Z,0.17
2022-09-22T10:54:24.735Z,0.20
2022-09-22T10:56:57.031Z,0.30
2022-09-22T10:59:55.410Z,0.20
2022-09-22T11:02:46.666Z,0.20
2022-09-22T11:05:48.543Z,0.30
2022-09-22T11:08:36.106Z,0.40
2022-09-22T11:11:32.658Z,0.30
2022-09-22T11:14:17.293Z,0.50
2022-09-22T11:17:03.137Z,0.20
2022-09-22T11:19:49.560Z,0.30
2022-09-22T11:22:48.906Z,0.20
2022-09-22T11:25:42.488Z,0.30
2022-09-22T11:28:25.779Z,0.30
2022-09-22T11:30:57.561Z,0.40
2022-09-22T11:33:56.290Z,0.30
2022-09-22T11:36:36.490Z,0.30
2022-09-22T11:39:24.832Z,0.40
2022-09-22T11:42:07.831Z,0.20
2022-09-22T11:44:39.901Z,0.40
2022-09-22T11:47:41.699Z,0.40
2022-09-22T11:50:34.725Z,0.30
2022-09-22T11:53:38.390Z,0.40
2022-09-22T11:56:24.959Z,0.40
2022-09-22T11:58:59.126Z,0.40
2022-09-22T12:01:33.423Z,0.40
2022-09-22T12:04:09.136Z,0.50
2022-09-22T12:06:45.669Z,0.40
2022-09-22T12:09:21.587Z,0.60
2022-09-22T12:11:58.281Z,0.40
2022-09-22T12:14:31.586Z,0.30
2022-09-22T12:17:06.018Z,0.40
2022-09-22T12:19:43.659Z,0.30
2022-09-22T12:22:19.595Z,0.30
2022-09-22T12:24:48.585Z,0.40
2022-09-22T12:27:23.590Z,0.50
2022-09-22T12:30:00.409Z,0.40
2022-09-22T12:32:35.758Z,0.50
2022-09-22T12:35:05.108Z,0.40
2022-09-22T12:37:35.167Z,0.30
2022-09-22T12:40:22.589Z,0.40
2022-09-22T12:42:54.659Z,0.50
2022-09-22T12:45:34.220Z,0.30
2022-09-22T12:48:10.452Z,0.40
2022-09-22T12:50:41.298Z,0.40
2022-09-22T12:53:25.052Z,0.40
2022-09-22T12:55:54.132Z,0.40
2022-09-22T12:58:45.558Z,0.30
2022-09-22T13:01:32.845Z,0.33
2022-09-22T13:04:22.192Z,0.30
2022-09-22T13:06:56.606Z,0.30
2022-09-22T13:09:30.189Z,0.40
2022-09-22T13:12:25.719Z,0.40
2022-09-22T13:15:21.516Z,0.30
2022-09-22T13:17:51.325Z,0.40
2022-09-22T13:20:25.454Z,0.50
2022-09-22T13:22:56.862Z,0.50
2022-09-22T13:25:27.973Z,0.30
2022-09-22T13:28:08.068Z,0.30
2022-09-22T13:30:40.327Z,0.30
2022-09-22T13:33:20.599Z,0.40
2022-09-22T13:35:53.437Z,0.40
2022-09-22T13:38:22.746Z,0.73
2022-09-22T13:40:52.784Z,0.40
2022-09-22T13:43:32.181Z,0.40
2022-09-22T13:46:02.784Z,0.27
2022-09-22T13:48:35.655Z,0.50
2022-09-22T13:51:09.490Z,0.40
2022-09-22T13:53:38.996Z,0.30
2022-09-22T13:56:22.121Z,0.40
2022-09-22T13:58:59.074Z,0.40
2022-09-22T14:01:31.767Z,0.80
2022-09-22T14:04:00.590Z,2.10
2022-09-22T14:06:32.642Z,0.40
2022-09-22T14:09:10.179Z,0.40
2022-09-22T14:11:46.755Z,0.40
2022-09-22T14:14:24.514Z,0.37
2022-09-22T14:16:58.235Z,0.40
2022-09-22T14:19:33.224Z,0.60
2022-09-22T14:22:04.033Z,0.30
2022-09-22T14:24:34.827Z,0.43
2022-09-22T14:27:05.740Z,0.30
2022-09-22T14:29:36.184Z,0.40
2022-09-22T14:32:14.142Z,0.37
2022-09-22T14:34:48.286Z,0.50
2022-09-22T14:37:23.714Z,0.30
2022-09-22T14:40:01.145Z,0.30
2022-09-22T14:42:32.297Z,0.40
2022-09-22T14:45:21.229Z,0.40
2022-09-22T14:48:16.262Z,0.40
2022-09-22T14:50:48.584Z,0.40
2022-09-22T14:53:23.097Z,0.40
2022-09-22T14:55:54.777Z,0.30
2022-09-22T14:58:25.490Z,0.40
2022-09-22T15:01:14.360Z,0.40
2022-09-22T15:03:47.628Z,0.40
2022-09-22T15:06:16.362Z,0.50
2022-09-22T15:08:51.285Z,0.40
2022-09-22T15:11:20.401Z,0.50
2022-09-22T15:13:53.051Z,0.33
2022-09-22T15:16:38.784Z,0.60
2022-09-22T15:19:13.114Z,0.50
2022-09-22T15:21:52.598Z,0.40
2022-09-22T15:24:29.708Z,0.60
2022-09-22T15:27:00.393Z,0.50
2022-09-22T15:29:32.482Z,0.40
2022-09-22T15:32:00.988Z,0.60
2022-09-22T15:34:30.573Z,0.40
2022-09-22T15:36:59.249Z,0.50
2022-09-22T15:39:27.950Z,0.50
2022-09-22T15:41:57.828Z,0.40
2022-09-22T15:44:26.109Z,0.70
2022-09-22T15:46:55.839Z,1.10
2022-09-22T15:49:27.643Z,0.83
2022-09-22T15:51:59.335Z,0.53
2022-09-22T15:54:29.613Z,0.80
2022-09-22T15:57:00.681Z,0.53
2022-09-22T15:59:32.581Z,0.50
2022-09-22T16:02:02.815Z,0.40
2022-09-22T16:04:31.646Z,0.50
2022-09-22T16:07:04.983Z,0.50
2022-09-22T16:09:34.478Z,0.93
2022-09-22T16:12:03.236Z,1.00
2022-09-22T16:14:31.363Z,0.73
2022-09-22T16:16:59.487Z,0.90
2022-09-22T16:19:32.027Z,0.63
2022-09-22T16:22:01.504Z,0.80
2022-09-22T16:24:29.827Z,0.77
2022-09-22T16:26:58.441Z,0.50
2022-09-22T16:29:27.093Z,0.73
2022-09-22T16:31:56.179Z,0.70
2022-09-22T16:34:25.247Z,0.70
2022-09-22T16:36:53.458Z,0.80
2022-09-22T16:39:22.942Z,0.90
2022-09-22T16:41:56.441Z,1.07
2022-09-22T16:44:24.673Z,1.30
2022-09-22T16:46:53.318Z,1.10
2022-09-22T16:49:22.144Z,0.90
2022-09-22T16:51:55.114Z,0.90
2022-09-22T16:54:25.205Z,1.00
2022-09-22T16:56:54.598Z,0.80
2022-09-22T16:59:23.983Z,0.80
2022-09-22T17:01:53.968Z,0.70
2022-09-22T17:04:22.441Z,0.90
2022-09-22T17:06:51.238Z,0.90
2022-09-22T17:09:19.769Z,0.80
2022-09-22T17:11:49.988Z,0.73
2022-09-22T17:14:21.672Z,1.00
2022-09-22T17:16:52.444Z,0.80
2022-09-22T17:19:24.477Z,0.90
2022-09-22T17:21:55.436Z,1.10
2022-09-22T17:24:25.275Z,0.90
2022-09-22T17:26:56.912Z,0.77
2022-09-22T17:29:26.588Z,0.83
2022-09-22T17:31:57.077Z,0.50
2022-09-22T17:34:25.586Z,0.60
2022-09-22T17:36:55.669Z,0.50
2022-09-22T17:39:24.189Z,0.70
2022-09-22T17:41:52.551Z,0.47
2022-09-22T17:44:23.261Z,0.70
2022-09-22T17:47:10.901Z,0.60
2022-09-22T17:49:57.106Z,0.80
2022-09-22T17:52:43.629Z,0.80
2022-09-22T17:55:16.897Z,1.10
2022-09-22T17:57:46.476Z,1.20
2022-09-22T18:00:19.592Z,0.90
2022-09-22T18:02:49.299Z,1.20
2022-09-22T18:05:19.691Z,1.60
2022-09-22T18:07:51.664Z,2.40
2022-09-22T18:10:22.178Z,1.90
2022-09-22T18:12:50.796Z,1.53
2022-09-22T18:15:20.677Z,2.73
2022-09-22T18:17:49.504Z,2.57
2022-09-22T18:20:20.811Z,2.33
2022-09-22T18:22:50.084Z,1.87
2022-09-22T18:25:19.882Z,1.70
2022-09-22T18:27:49.463Z,1.10
2022-09-22T18:30:19.831Z,1.00
2022-09-22T18:32:48.974Z,3.73
2022-09-22T18:35:17.562Z,2.50
2022-09-22T18:37:46.296Z,2.47
2022-09-22T18:40:16.908Z,1.87
2022-09-22T18:42:45.427Z,3.00
2022-09-22T18:45:19.253Z,2.20
2022-09-22T18:47:55.827Z,2.17
2022-09-22T18:50:24.245Z,3.00
2022-09-22T18:52:56.769Z,3.73
2022-09-22T18:55:24.981Z,3.77
2022-09-22T18:57:54.117Z,3.07
2022-09-22T19:00:22.430Z,3.60
2022-09-22T19:02:52.249Z,3.13
2022-09-22T19:05:20.610Z,2.47
2022-09-22T19:07:49.242Z,2.47
2022-09-22T19:10:22.069Z,2.70
2022-09-22T19:12:51.071Z,3.50
2022-09-22T19:15:19.951Z,3.00
2022-09-22T19:17:50.190Z,2.83
2022-09-22T19:20:22.610Z,3.13
2022-09-22T19:22:52.477Z,2.93
2022-09-22T19:25:22.068Z,2.97
2022-09-22T19:27:50.882Z,2.40
2022-09-22T19:30:22.884Z,2.60
2022-09-22T19:32:53.052Z,2.13
2022-09-22T19:35:22.792Z,2.17
2022-09-22T19:37:52.046Z,2.47
2022-09-22T19:40:24.616Z,2.97
2022-09-22T19:42:54.193Z,2.27
2022-09-22T19:45:24.034Z,2.83
2022-09-22T19:47:52.981Z,2.30
2022-09-22T19:50:22.479Z,2.00
2022-09-22T19:52:51.120Z,2.03
2022-09-22T19:55:21.267Z,1.63
2022-09-22T19:57:54.293Z,1.73
2022-09-22T20:00:26.137Z,1.97
2022-09-22T20:02:58.971Z,2.00
2022-09-22T20:05:31.644Z,1.67
2022-09-22T20:08:01.645Z,1.90
2022-09-22T20:10:31.586Z,2.23
2022-09-22T20:13:00.118Z,1.50
2022-09-22T20:15:29.455Z,1.40
2022-09-22T20:17:57.553Z,1.77
2022-09-22T20:20:32.408Z,1.40
2022-09-22T20:23:01.132Z,1.47
2022-09-22T20:25:32.242Z,1.37
2022-09-22T20:28:01.069Z,1.30
2022-09-22T20:30:29.506Z,1.37
2022-09-22T20:32:57.692Z,1.27
2022-09-22T20:35:25.994Z,1.30
2022-09-22T20:37:59.283Z,1.33
2022-09-22T20:40:29.053Z,1.10
2022-09-22T20:42:58.279Z,1.50
2022-09-22T20:45:27.511Z,1.40
2022-09-22T20:47:56.389Z,1.10
2022-09-22T20:50:24.707Z,1.30
2022-09-22T20:52:54.101Z,1.00
2022-09-22T20:55:23.775Z,1.30
2022-09-22T20:57:51.893Z,1.90
2022-09-22T21:00:20.220Z,2.10
2022-09-22T21:02:48.680Z,1.63
2022-09-22T21:05:17.213Z,1.20
2022-09-22T21:07:46.658Z,0.80
2022-09-22T21:10:32.721Z,0.73
2022-09-22T21:13:04.174Z,0.60
2022-09-22T21:15:32.722Z,0.70
2022-09-22T21:18:01.743Z,0.57
2022-09-22T21:20:30.288Z,0.80
2022-09-22T21:22:58.399Z,0.50
2022-09-22T21:25:26.925Z,0.70
2022-09-22T21:27:55.045Z,0.60
2022-09-22T21:30:24.498Z,0.70
2022-09-22T21:32:52.562Z,0.60
2022-09-22T21:35:20.688Z,0.50
2022-09-22T21:37:48.858Z,0.60
2022-09-22T21:40:18.268Z,0.70
2022-09-22T21:42:47.215Z,0.70
2022-09-22T21:45:15.790Z,0.60
2022-09-22T21:47:46.094Z,0.50
2022-09-22T21:50:14.801Z,0.83
2022-09-22T21:52:45.902Z,0.60
2022-09-22T21:55:14.375Z,0.53
2022-09-22T21:57:42.588Z,0.60
2022-09-22T22:00:12.267Z,0.80
2022-09-22T22:02:55.031Z,0.87
2022-09-22T22:05:26.059Z,0.80
2022-09-22T22:07:55.610Z,0.97
2022-09-22T22:10:25.458Z,0.67
2022-09-22T22:12:55.998Z,0.53
2022-09-22T22:15:24.143Z,0.50
2022-09-22T22:17:52.200Z,0.60
2022-09-22T22:20:20.750Z,0.53
2022-09-22T22:22:50.200Z,0.60
2022-09-22T22:25:19.485Z,0.63
2022-09-22T22:27:47.613Z,0.60
2022-09-22T22:30:16.211Z,0.60
2022-09-22T22:32:46.384Z,0.50
2022-09-22T22:35:15.269Z,0.60
2022-09-22T22:37:45.705Z,0.70
2022-09-22T22:40:16.132Z,0.60
2022-09-22T22:42:44.693Z,0.60
2022-09-22T22:45:13.158Z,0.60
2022-09-22T22:47:41.658Z,0.63
2022-09-22T22:50:10.947Z,0.50
2022-09-22T22:52:42.282Z,0.50
2022-09-22T22:55:10.593Z,0.60
2022-09-22T22:57:40.067Z,0.80
2022-09-22T23:00:09.969Z,0.60
2022-09-22T23:02:38.747Z,0.47
2022-09-22T23:05:08.582Z,0.47
2022-09-22T23:07:37.121Z,0.50
2022-09-22T23:10:08.956Z,0.50
2022-09-22T23:12:40.301Z,0.50
2022-09-22T23:15:10.827Z,0.60
2022-09-22T23:17:39.295Z,0.57
2022-09-22T23:20:08.513Z,0.40
2022-09-22T23:22:36.559Z,0.50
2022-09-22T23:25:05.059Z,0.93
2022-09-22T23:27:33.930Z,0.40
2022-09-22T23:30:03.751Z,0.40
2022-09-22T23:32:32.200Z,0.60
2022-09-22T23:35:00.849Z,0.40
2022-09-22T23:37:29.182Z,0.57
2022-09-22T23:39:57.391Z,0.40
2022-09-22T23:42:25.920Z,0.37
2022-09-22T23:44:53.968Z,0.40
2022-09-22T23:47:23.444Z,0.40
2022-09-22T23:49:51.784Z,0.50
2022-09-22T23:52:19.853Z,0.40
2022-09-22T23:54:49.623Z,0.50
2022-09-22T23:57:17.728Z,0.40
2022-09-22T23:59:46.117Z,0.47
